createdAt,value
2023-04-22T00:05:01.940Z,6.48
2023-04-22T00:07:30.191Z,6.46
2023-04-22T00:09:58.041Z,6.40
2023-04-22T00:12:26.038Z,6.28
2023-04-22T00:14:53.902Z,6.38
2023-04-22T00:17:21.752Z,6.30
2023-04-22T00:19:50.150Z,6.39
2023-04-22T00:22:18.095Z,6.33
2023-04-22T00:24:46.052Z,6.27
2023-04-22T00:27:14.010Z,6.25
2023-04-22T00:29:42.066Z,6.11
2023-04-22T00:32:10.225Z,6.07
2023-04-22T00:34:38.242Z,6.11
2023-04-22T00:37:06.960Z,6.18
2023-04-22T00:39:35.448Z,6.17
2023-04-22T00:42:03.646Z,6.16
2023-04-22T00:44:31.968Z,6.08
2023-04-22T00:47:00.680Z,6.11
2023-04-22T00:49:28.852Z,6.16
2023-04-22T00:51:56.830Z,6.16
2023-04-22T00:54:24.918Z,6.16
2023-04-22T00:56:53.348Z,6.04
2023-04-22T00:59:23.576Z,6.04
2023-04-22T01:01:52.505Z,5.91
2023-04-22T01:04:22.006Z,5.88
2023-04-22T01:06:53.901Z,5.71
2023-04-22T01:09:22.025Z,5.95
2023-04-22T01:11:49.987Z,5.84
2023-04-22T01:14:18.040Z,5.78
2023-04-22T01:16:46.710Z,5.63
2023-04-22T01:19:15.382Z,5.60
2023-04-22T01:21:45.292Z,5.52
2023-04-22T01:24:13.747Z,5.38
2023-04-22T01:26:41.652Z,5.40
2023-04-22T01:29:09.740Z,5.35
2023-04-22T01:31:39.062Z,5.37
2023-04-22T01:34:07.604Z,5.33
2023-04-22T01:36:35.608Z,5.31
2023-04-22T01:39:03.727Z,5.34
2023-04-22T01:41:32.705Z,5.35
2023-04-22T01:44:02.928Z,5.39
2023-04-22T01:46:31.110Z,5.32
2023-04-22T01:48:59.127Z,5.32
2023-04-22T01:51:27.180Z,5.28
2023-04-22T01:53:57.012Z,5.26
2023-04-22T01:56:25.108Z,5.33
2023-04-22T01:58:53.079Z,5.39
2023-04-22T02:01:20.975Z,5.35
2023-04-22T02:03:49.317Z,5.33
2023-04-22T02:06:17.406Z,5.33
2023-04-22T02:08:45.400Z,5.29
2023-04-22T02:11:14.193Z,5.25
2023-04-22T02:13:42.419Z,5.22
2023-04-22T02:16:11.151Z,5.07
2023-04-22T02:18:39.251Z,5.16
2023-04-22T02:21:09.805Z,5.10
2023-04-22T02:23:39.626Z,5.09
2023-04-22T02:26:08.646Z,5.07
2023-04-22T02:28:36.578Z,5.10
2023-04-22T02:31:06.888Z,5.09
2023-04-22T02:33:34.942Z,5.11
2023-04-22T02:36:02.765Z,5.22
2023-04-22T02:38:30.780Z,5.20
2023-04-22T02:40:58.817Z,5.09
2023-04-22T02:43:27.257Z,5.11
2023-04-22T02:45:55.328Z,5.19
2023-04-22T02:48:23.631Z,5.34
2023-04-22T02:50:51.576Z,5.51
2023-04-22T02:55:28.567Z,5.27
2023-04-22T02:57:56.760Z,5.33
2023-04-22T03:00:24.736Z,5.28
2023-04-22T03:02:52.994Z,5.38
2023-04-22T03:05:25.312Z,5.49
2023-04-22T03:07:53.814Z,5.61
2023-04-22T03:10:22.257Z,5.61
2023-04-22T03:12:51.645Z,5.45
2023-04-22T03:15:21.643Z,5.61
2023-04-22T03:17:50.039Z,5.59
2023-04-22T03:20:21.022Z,5.65
2023-04-22T03:22:48.870Z,5.78
2023-04-22T03:25:17.671Z,5.83
2023-04-22T03:27:54.714Z,5.89
2023-04-22T03:30:22.913Z,5.97
2023-04-22T03:32:51.325Z,6.05
2023-04-22T03:35:23.106Z,6.06
2023-04-22T03:37:52.803Z,6.04
2023-04-22T03:40:27.105Z,5.88
2023-04-22T03:42:55.805Z,5.91
2023-04-22T03:45:24.066Z,5.82
2023-04-22T03:48:12.425Z,6.00
2023-04-22T03:50:46.118Z,6.16
2023-04-22T03:53:14.539Z,6.27
2023-04-22T03:55:42.705Z,6.36
2023-04-22T03:58:11.641Z,6.40
2023-04-22T04:00:39.591Z,6.13
2023-04-22T04:03:12.230Z,6.26
2023-04-22T04:05:40.842Z,6.29
2023-04-22T04:08:10.056Z,6.44
2023-04-22T04:10:38.008Z,6.50
2023-04-22T04:13:06.535Z,6.56
2023-04-22T04:15:45.281Z,6.57
2023-04-22T04:18:14.142Z,6.66
2023-04-22T04:20:42.740Z,6.69
2023-04-22T04:23:10.772Z,6.64
2023-04-22T04:25:38.972Z,6.74
2023-04-22T04:28:13.104Z,6.73
2023-04-22T04:30:41.993Z,6.89
2023-04-22T04:33:10.347Z,6.78
2023-04-22T04:35:41.812Z,6.79
2023-04-22T04:38:13.088Z,6.58
2023-04-22T04:40:40.904Z,6.54
2023-04-22T04:43:14.639Z,6.59
2023-04-22T04:45:52.297Z,6.65
2023-04-22T04:48:27.370Z,6.70
2023-04-22T04:51:01.883Z,6.61
2023-04-22T04:53:32.980Z,6.79
2023-04-22T04:56:01.066Z,6.96
2023-04-22T04:58:30.638Z,7.05
2023-04-22T05:01:12.603Z,7.30
2023-04-22T05:03:42.958Z,7.39
2023-04-22T05:06:11.034Z,7.53
2023-04-22T05:08:41.464Z,7.36
2023-04-22T05:11:10.992Z,7.23
2023-04-22T05:13:39.016Z,7.13
2023-04-22T05:16:09.987Z,7.06
2023-04-22T05:18:40.399Z,6.92
2023-04-22T05:21:10.537Z,7.01
2023-04-22T05:23:39.809Z,7.11
2023-04-22T05:26:08.252Z,7.25
2023-04-22T05:28:40.018Z,7.36
2023-04-22T05:31:08.185Z,7.59
2023-04-22T05:33:36.412Z,7.78
2023-04-22T05:36:04.753Z,7.92
2023-04-22T05:38:32.691Z,7.98
2023-04-22T05:41:01.446Z,8.22
2023-04-22T05:43:30.227Z,8.34
2023-04-22T05:46:08.113Z,8.11
2023-04-22T05:48:39.051Z,8.06
2023-04-22T05:51:10.549Z,7.96
2023-04-22T05:53:39.058Z,8.01
2023-04-22T05:56:07.350Z,8.00
2023-04-22T05:58:35.417Z,8.43
2023-04-22T06:01:10.513Z,8.50
2023-04-22T06:03:52.891Z,8.58
2023-04-22T06:06:21.400Z,8.71
2023-04-22T06:08:49.624Z,8.98
2023-04-22T06:11:18.940Z,9.19
2023-04-22T06:13:47.449Z,9.23
2023-04-22T06:16:16.951Z,9.56
2023-04-22T06:18:44.981Z,9.61
2023-04-22T06:21:13.541Z,10.06
2023-04-22T06:23:42.627Z,9.82
2023-04-22T06:26:10.806Z,9.50
2023-04-22T06:28:39.164Z,9.80
2023-04-22T06:31:12.294Z,9.98
2023-04-22T06:33:40.740Z,10.21
2023-04-22T06:36:09.628Z,10.81
2023-04-22T06:38:38.841Z,11.22
2023-04-22T06:41:34.707Z,11.71
2023-04-22T06:44:09.927Z,12.12
2023-04-22T06:46:44.120Z,13.21
2023-04-22T06:49:24.244Z,15.18
2023-04-22T06:51:58.332Z,15.35
2023-04-22T06:54:26.492Z,16.55
2023-04-22T06:56:55.338Z,17.91
2023-04-22T06:59:25.122Z,19.40
2023-04-22T07:01:53.356Z,19.93
2023-04-22T07:04:22.528Z,18.72
2023-04-22T07:06:50.700Z,17.68
2023-04-22T07:09:18.861Z,17.81
2023-04-22T07:11:46.840Z,19.16
2023-04-22T07:14:19.105Z,20.09
2023-04-22T07:16:47.797Z,21.08
2023-04-22T07:19:15.982Z,21.99
2023-04-22T07:21:43.989Z,22.04
2023-04-22T07:24:13.526Z,21.26
2023-04-22T07:26:43.120Z,21.41
2023-04-22T07:29:13.472Z,21.34
2023-04-22T07:31:41.973Z,22.06
2023-04-22T07:34:11.221Z,23.78
2023-04-22T07:36:39.413Z,23.55
2023-04-22T07:39:08.163Z,23.23
2023-04-22T07:41:36.556Z,22.25
2023-04-22T07:44:04.682Z,23.22
2023-04-22T07:46:32.958Z,25.12
2023-04-22T07:49:01.432Z,25.63
2023-04-22T07:51:30.037Z,26.58
2023-04-22T07:53:57.996Z,27.69
2023-04-22T07:56:27.213Z,28.12
2023-04-22T07:58:57.618Z,28.56
2023-04-22T08:01:25.776Z,27.90
2023-04-22T08:03:54.124Z,28.23
2023-04-22T08:06:22.365Z,28.63
2023-04-22T08:08:50.305Z,29.87
2023-04-22T08:11:18.325Z,30.23
2023-04-22T08:13:46.424Z,30.29
2023-04-22T08:16:14.415Z,29.27
2023-04-22T08:18:42.750Z,28.79
2023-04-22T08:21:11.280Z,27.97
2023-04-22T08:23:39.551Z,27.82
2023-04-22T08:26:08.657Z,27.65
2023-04-22T08:28:36.566Z,27.70
2023-04-22T08:31:05.031Z,26.25
2023-04-22T08:33:33.156Z,27.15
2023-04-22T08:36:03.756Z,27.33
2023-04-22T08:38:32.030Z,27.03
2023-04-22T08:41:00.483Z,27.60
2023-04-22T08:43:28.705Z,27.60
2023-04-22T08:45:56.722Z,26.22
2023-04-22T08:48:26.511Z,26.47
2023-04-22T08:50:54.986Z,27.56
2023-04-22T08:53:24.783Z,28.44
2023-04-22T08:55:56.568Z,28.73
2023-04-22T08:58:24.747Z,28.84
2023-04-22T09:00:53.605Z,29.20
2023-04-22T09:03:23.692Z,28.92
2023-04-22T09:05:53.481Z,28.59
2023-04-22T09:08:24.581Z,26.45
2023-04-22T09:10:52.790Z,26.20
2023-04-22T09:13:22.047Z,26.90
2023-04-22T09:15:50.138Z,26.48
2023-04-22T09:18:21.963Z,27.22
2023-04-22T09:20:54.796Z,26.96
2023-04-22T09:23:23.072Z,26.59
2023-04-22T09:25:51.142Z,26.44
2023-04-22T09:28:20.006Z,26.45
2023-04-22T09:30:48.631Z,25.59
2023-04-22T09:33:17.827Z,25.71
2023-04-22T09:35:46.160Z,26.32
2023-04-22T09:38:15.127Z,26.98
2023-04-22T09:40:44.561Z,27.54
2023-04-22T09:43:13.287Z,27.46
2023-04-22T09:45:43.069Z,26.68
2023-04-22T09:48:18.865Z,26.57
2023-04-22T09:50:49.599Z,26.93
2023-04-22T09:53:20.580Z,26.75
2023-04-22T09:55:54.361Z,25.72
2023-04-22T09:58:24.282Z,24.24
2023-04-22T10:00:55.457Z,23.14
2023-04-22T10:03:24.194Z,22.09
2023-04-22T10:05:52.730Z,21.64
2023-04-22T10:08:21.146Z,21.86
2023-04-22T10:10:49.825Z,22.01
2023-04-22T10:13:17.861Z,21.54
2023-04-22T10:15:54.355Z,20.95
2023-04-22T10:18:28.542Z,20.42
2023-04-22T10:20:58.647Z,19.97
2023-04-22T10:23:32.580Z,19.23
2023-04-22T10:26:01.355Z,18.83
2023-04-22T10:28:31.057Z,18.49
2023-04-22T10:31:01.167Z,18.53
2023-04-22T10:33:31.899Z,17.79
2023-04-22T10:36:15.242Z,17.41
2023-04-22T10:38:56.043Z,17.23
2023-04-22T10:41:25.917Z,17.21
2023-04-22T10:43:59.060Z,17.08
2023-04-22T10:46:40.349Z,17.00
2023-04-22T10:49:21.021Z,16.91
2023-04-22T10:51:54.563Z,17.10
2023-04-22T10:54:31.516Z,17.45
2023-04-22T10:57:11.818Z,17.39
2023-04-22T10:59:59.325Z,17.81
2023-04-22T11:02:28.023Z,17.77
2023-04-22T11:05:19.102Z,17.74
2023-04-22T11:07:50.045Z,17.90
2023-04-22T11:10:46.977Z,18.03
2023-04-22T11:13:22.766Z,17.89
2023-04-22T11:15:55.396Z,17.87
2023-04-22T11:18:27.723Z,17.89
2023-04-22T11:20:57.364Z,18.05
2023-04-22T11:23:27.620Z,18.39
2023-04-22T11:26:02.641Z,18.65
2023-04-22T11:28:31.943Z,18.64
2023-04-22T11:31:08.524Z,18.93
2023-04-22T11:33:39.398Z,19.42
2023-04-22T11:36:12.646Z,19.73
2023-04-22T11:38:41.489Z,19.59
2023-04-22T11:41:09.627Z,19.58
2023-04-22T11:43:48.094Z,19.58
2023-04-22T11:46:16.682Z,19.40
2023-04-22T11:48:44.852Z,19.07
2023-04-22T11:51:13.484Z,19.08
2023-04-22T11:53:50.683Z,18.52
2023-04-22T11:56:21.014Z,17.92
2023-04-22T11:58:49.516Z,17.86
2023-04-22T12:01:18.383Z,17.97
2023-04-22T12:03:47.151Z,17.56
2023-04-22T12:06:17.183Z,17.02
2023-04-22T12:08:47.731Z,16.90
2023-04-22T12:11:15.861Z,17.02
2023-04-22T12:13:48.431Z,17.14
2023-04-22T12:16:20.380Z,17.63
2023-04-22T12:18:50.375Z,18.22
2023-04-22T12:21:22.153Z,18.74
2023-04-22T12:24:00.320Z,18.78
2023-04-22T12:26:28.943Z,19.20
2023-04-22T12:28:58.460Z,19.36
2023-04-22T12:31:28.364Z,18.74
2023-04-22T12:33:57.206Z,18.59
2023-04-22T12:36:26.559Z,18.53
2023-04-22T12:38:55.014Z,18.17
2023-04-22T12:41:24.061Z,18.67
2023-04-22T12:43:53.024Z,18.97
2023-04-22T12:46:21.764Z,18.98
2023-04-22T12:48:50.000Z,19.01
2023-04-22T12:51:18.742Z,18.79
2023-04-22T12:53:47.063Z,18.71
2023-04-22T12:56:15.763Z,18.89
2023-04-22T12:58:43.909Z,18.83
2023-04-22T13:01:12.209Z,18.77
2023-04-22T13:03:40.718Z,17.80
2023-04-22T13:06:09.453Z,17.97
2023-04-22T13:08:39.995Z,18.11
2023-04-22T13:11:08.258Z,18.01
2023-04-22T13:13:37.026Z,18.05
2023-04-22T13:16:05.831Z,17.98
2023-04-22T13:18:34.377Z,18.01
2023-04-22T13:21:02.742Z,18.03
2023-04-22T13:23:31.397Z,17.98
2023-04-22T13:26:00.270Z,17.97
2023-04-22T13:28:28.876Z,17.98
2023-04-22T13:30:57.168Z,17.75
2023-04-22T13:33:25.589Z,17.32
2023-04-22T13:35:54.106Z,17.25
2023-04-22T13:38:22.701Z,17.53
2023-04-22T13:40:51.239Z,17.44
2023-04-22T13:43:19.529Z,17.23
2023-04-22T13:45:48.928Z,17.06
2023-04-22T13:48:17.428Z,16.75
2023-04-22T13:50:45.937Z,16.96
2023-04-22T13:53:14.635Z,17.05
2023-04-22T14:01:09.328Z,16.36
2023-04-22T14:03:37.763Z,16.33
2023-04-22T14:06:06.271Z,16.22
2023-04-22T14:08:34.533Z,16.30
2023-04-22T14:11:03.671Z,16.25
2023-04-22T14:13:32.059Z,16.30
2023-04-22T14:16:00.840Z,16.33
2023-04-22T14:18:29.833Z,16.23
2023-04-22T14:20:58.313Z,16.39
2023-04-22T14:23:26.574Z,16.43
2023-04-22T14:25:55.610Z,16.47
2023-04-22T14:28:24.122Z,16.61
2023-04-22T14:30:53.048Z,16.68
2023-04-22T14:33:24.367Z,16.78
2023-04-22T14:35:53.734Z,16.96
2023-04-22T14:38:22.476Z,17.00
2023-04-22T14:40:51.085Z,16.86
2023-04-22T14:43:20.505Z,16.66
2023-04-22T14:45:49.329Z,16.74
2023-04-22T14:48:17.878Z,16.74
2023-04-22T14:50:46.676Z,16.73
2023-04-22T14:53:14.888Z,16.62
2023-04-22T14:55:43.177Z,16.60
2023-04-22T14:58:11.648Z,16.69
2023-04-22T15:00:40.240Z,16.64
2023-04-22T15:03:08.548Z,16.72
2023-04-22T15:05:37.077Z,16.83
2023-04-22T15:08:05.240Z,16.90
2023-04-22T15:10:34.303Z,16.95
2023-04-22T15:13:02.754Z,16.95
2023-04-22T15:15:30.959Z,17.06
2023-04-22T15:17:59.168Z,17.05
2023-04-22T15:20:27.261Z,17.18
2023-04-22T15:22:55.350Z,17.30
2023-04-22T15:25:24.751Z,17.38
2023-04-22T15:27:53.552Z,16.83
2023-04-22T15:30:22.002Z,16.21
2023-04-22T15:32:50.546Z,15.85
2023-04-22T15:35:20.591Z,15.51
2023-04-22T15:37:49.319Z,15.06
2023-04-22T15:40:17.681Z,14.68
2023-04-22T15:42:46.167Z,14.35
2023-04-22T15:45:14.637Z,14.35
2023-04-22T15:47:43.063Z,14.26
2023-04-22T15:50:11.552Z,14.28
2023-04-22T15:52:40.112Z,14.12
2023-04-22T15:55:08.753Z,13.93
2023-04-22T15:57:36.807Z,13.98
2023-04-22T16:00:12.715Z,13.86
2023-04-22T16:02:45.706Z,13.80
2023-04-22T16:05:15.134Z,13.69
2023-04-22T16:07:43.640Z,13.78
2023-04-22T16:10:12.425Z,13.68
2023-04-22T16:12:42.135Z,13.80
2023-04-22T16:15:11.359Z,13.71
2023-04-22T16:17:39.764Z,13.64
2023-04-22T16:20:10.063Z,13.61
2023-04-22T16:22:38.694Z,13.72
2023-04-22T16:25:07.859Z,13.61
2023-04-22T16:27:36.445Z,13.50
2023-04-22T16:30:06.134Z,13.52
2023-04-22T16:32:34.907Z,13.46
2023-04-22T16:35:03.322Z,13.53
2023-04-22T16:37:32.183Z,13.47
2023-04-22T16:40:03.501Z,13.45
2023-04-22T16:42:31.815Z,13.32
2023-04-22T16:45:00.544Z,13.34
2023-04-22T16:47:28.656Z,13.21
2023-04-22T16:49:56.817Z,13.20
2023-04-22T16:52:26.016Z,12.89
2023-04-22T16:54:54.506Z,13.03
2023-04-22T16:57:23.287Z,13.08
2023-04-22T16:59:51.704Z,13.17
2023-04-22T17:02:19.984Z,13.24
2023-04-22T17:04:48.301Z,13.22
2023-04-22T17:07:16.918Z,13.28
2023-04-22T17:09:45.390Z,13.48
2023-04-22T17:12:13.996Z,13.49
2023-04-22T17:14:42.609Z,13.46
2023-04-22T17:17:11.292Z,13.43
2023-04-22T17:19:40.169Z,13.40
2023-04-22T17:22:08.947Z,13.32
2023-04-22T17:24:37.501Z,13.24
2023-04-22T17:27:06.052Z,13.33
2023-04-22T17:29:34.551Z,13.32
2023-04-22T17:32:03.053Z,13.21
2023-04-22T17:34:32.096Z,13.33
2023-04-22T17:37:00.572Z,13.32
2023-04-22T17:39:29.313Z,13.10
2023-04-22T17:41:58.904Z,12.94
2023-04-22T17:44:27.475Z,12.98
2023-04-22T17:46:56.196Z,12.96
2023-04-22T17:49:24.493Z,12.78
2023-04-22T17:51:54.225Z,12.57
2023-04-22T17:54:23.686Z,12.42
2023-04-22T17:56:52.060Z,12.40
2023-04-22T17:59:20.492Z,12.34
2023-04-22T18:01:49.061Z,12.42
2023-04-22T18:04:17.564Z,12.34
2023-04-22T18:06:46.506Z,12.32
2023-04-22T18:09:14.909Z,12.37
2023-04-22T18:11:43.556Z,12.44
2023-04-22T18:14:11.929Z,12.50
2023-04-22T18:16:40.321Z,12.49
2023-04-22T18:19:08.792Z,12.59
2023-04-22T18:21:41.625Z,12.63
2023-04-22T18:24:15.264Z,12.57
2023-04-22T18:26:45.783Z,12.35
2023-04-22T18:29:14.525Z,12.44
2023-04-22T18:31:43.024Z,12.50
2023-04-22T18:34:13.861Z,12.46
2023-04-22T18:36:42.967Z,12.44
2023-04-22T18:39:11.238Z,12.32
2023-04-22T18:41:40.435Z,12.25
2023-04-22T18:44:08.934Z,12.14
2023-04-22T18:46:37.358Z,12.13
2023-04-22T18:49:06.190Z,11.98
2023-04-22T18:51:34.804Z,11.83
2023-04-22T18:54:03.314Z,11.80
2023-04-22T18:56:33.309Z,11.73
2023-04-22T18:59:01.795Z,11.73
2023-04-22T19:01:30.474Z,11.81
2023-04-22T19:04:02.152Z,11.82
2023-04-22T19:06:30.818Z,11.81
2023-04-22T19:08:59.312Z,11.81
2023-04-22T19:11:28.392Z,11.64
2023-04-22T19:13:57.179Z,11.47
2023-04-22T19:16:26.457Z,11.51
2023-04-22T19:18:55.487Z,11.60
2023-04-22T19:21:27.184Z,11.54
2023-04-22T19:23:55.932Z,11.60
2023-04-22T19:26:26.708Z,11.56
2023-04-22T19:28:55.424Z,11.53
2023-04-22T19:31:24.253Z,11.41
2023-04-22T19:33:53.193Z,11.27
2023-04-22T19:36:21.538Z,11.15
2023-04-22T19:38:50.217Z,11.23
2023-04-22T19:41:18.752Z,11.19
2023-04-22T19:43:47.113Z,11.16
2023-04-22T19:46:15.642Z,11.17
2023-04-22T19:48:44.369Z,11.12
2023-04-22T19:51:13.313Z,11.03
2023-04-22T19:53:42.553Z,10.96
2023-04-22T19:56:11.583Z,10.92
2023-04-22T19:58:41.323Z,10.86
2023-04-22T20:01:10.052Z,10.72
2023-04-22T20:03:38.597Z,10.67
2023-04-22T20:06:07.827Z,10.60
2023-04-22T20:08:36.832Z,10.63
2023-04-22T20:11:05.588Z,10.44
2023-04-22T20:13:34.814Z,10.36
2023-04-22T20:16:04.106Z,10.45
2023-04-22T20:18:32.812Z,10.46
2023-04-22T20:21:01.558Z,10.44
2023-04-22T20:23:32.705Z,10.42
2023-04-22T20:26:02.595Z,10.32
2023-04-22T20:28:52.183Z,10.21
2023-04-22T20:31:23.043Z,10.13
2023-04-22T20:33:53.091Z,9.99
2023-04-22T20:36:22.747Z,10.01
2023-04-22T20:38:55.104Z,9.98
2023-04-22T20:41:24.991Z,9.92
2023-04-22T20:43:53.486Z,9.92
2023-04-22T20:46:23.392Z,9.96
2023-04-22T20:48:51.945Z,9.93
2023-04-22T20:51:20.035Z,9.80
2023-04-22T20:53:48.696Z,9.77
2023-04-22T20:56:16.905Z,9.68
2023-04-22T20:58:45.043Z,9.56
2023-04-22T21:01:16.554Z,9.52
2023-04-22T21:03:53.289Z,9.46
2023-04-22T21:06:22.383Z,9.36
2023-04-22T21:08:51.203Z,9.34
2023-04-22T21:11:19.821Z,9.34
2023-04-22T21:13:49.084Z,9.30
2023-04-22T21:16:19.762Z,9.25
2023-04-22T21:18:49.372Z,9.20
2023-04-22T21:21:19.646Z,9.11
2023-04-22T21:23:48.479Z,9.10
2023-04-22T21:26:17.938Z,8.98
2023-04-22T21:28:46.305Z,8.92
2023-04-22T21:31:14.707Z,8.88
2023-04-22T21:33:43.149Z,8.80
2023-04-22T21:36:11.792Z,8.62
2023-04-22T21:38:40.261Z,8.73
2023-04-22T21:41:08.324Z,8.66
2023-04-22T21:43:36.256Z,8.74
2023-04-22T21:46:04.487Z,8.73
2023-04-22T21:48:32.533Z,8.83
2023-04-22T21:51:00.592Z,8.81
2023-04-22T21:53:28.492Z,8.82
2023-04-22T21:55:56.498Z,8.68
2023-04-22T21:58:24.394Z,8.68
2023-04-22T22:00:52.570Z,8.72
2023-04-22T22:03:20.662Z,8.79
2023-04-22T22:05:49.232Z,8.81
2023-04-22T22:08:17.120Z,8.75
2023-04-22T22:10:45.255Z,8.77
2023-04-22T22:13:13.289Z,8.69
2023-04-22T22:15:41.641Z,8.71
2023-04-22T22:18:09.557Z,8.68
2023-04-22T22:20:40.355Z,8.61
2023-04-22T22:23:08.240Z,8.36
2023-04-22T22:25:36.602Z,8.51
2023-04-22T22:28:04.490Z,8.56
2023-04-22T22:30:32.439Z,8.49
2023-04-22T22:33:00.923Z,8.43
2023-04-22T22:35:28.842Z,8.37
2023-04-22T22:37:56.706Z,8.37
2023-04-22T22:40:24.723Z,8.37
2023-04-22T22:42:52.582Z,8.30
2023-04-22T22:45:20.560Z,8.15
2023-04-22T22:47:48.470Z,8.20
2023-04-22T22:50:16.470Z,7.98
2023-04-22T22:52:44.524Z,8.10
2023-04-22T22:55:12.489Z,7.95
2023-04-22T22:57:40.562Z,8.08
2023-04-22T23:00:11.191Z,8.07
2023-04-22T23:02:39.590Z,8.05
2023-04-22T23:05:10.635Z,8.03
2023-04-22T23:07:38.955Z,7.97
2023-04-22T23:10:07.723Z,8.01
2023-04-22T23:12:35.633Z,8.03
2023-04-22T23:15:04.086Z,7.91
2023-04-22T23:17:32.161Z,7.96
2023-04-22T23:20:01.580Z,7.84
2023-04-22T23:22:31.312Z,7.76
2023-04-22T23:24:59.652Z,7.69
2023-04-22T23:27:28.005Z,7.60
2023-04-22T23:29:57.162Z,7.55
2023-04-22T23:32:27.160Z,7.51
2023-04-22T23:34:58.149Z,7.44
2023-04-22T23:37:49.234Z,7.40
2023-04-22T23:40:17.376Z,7.37
2023-04-22T23:42:45.306Z,7.33
2023-04-22T23:45:13.529Z,7.28
2023-04-22T23:47:41.540Z,7.24
2023-04-22T23:50:10.298Z,7.15
2023-04-22T23:52:41.440Z,7.17
2023-04-22T23:55:11.573Z,7.22
2023-04-22T23:57:39.899Z,7.16
